Startpagina
METAR-TAF:

METAR-TAF

Vliegvelden :

Johor Bahru, Maleisië

breedte: 01-38N, lengte: 103-40E, hoogte: 37 m

Actueel weer

Dit bericht is 26 minuten geleden gemaakt, om 04:00 UTC
Wind 10 kt uit het noordnoordoosten, variërend tussen het noorden en het oostnoordoosten
Temperatuur 31°C
Vochtigheid 71%
Druk 1014 hPa
Zicht 10 km of meer
Weinig wolken op 1800 ft

METAR: WMKJ 190400Z 03010KT 350V070 9999 FEW018 31/25 Q1014

Tijdstip: 12:26 (04:26 UTC)

Verwachting

Dit bericht is 5 uur en het 26 minuten geleden gemaakt, om 23:00 UTC
Verwachting geldig van 19 om 00 UTC tot 20 om 00 UTC
Wind 6 kt uit het noordoosten
Zicht 10 km of meer
Weinig wolken op 1800 ft
Kans 40% :
Tijdelijke
van 19 om 07 UTC tot 19 om 10 UTC
Zicht: 4000 m
Weinig wolken op 1700 ft, Cumulonimbus.
Verspreide wolken op 1800 ft
onweer, regen

TAF: WMKJ 182300Z 1900/2000 04006KT 9999 FEW018 PROB40 TEMPO 1907/1910 4000 TSRA FEW017CB SCT018

Waarnemingen en weersverwachtingen van meer dan 4000 vliegvelden (METAR en TAF).

De beschikbare stations zijn de gele en rode punten op de kaart.

Ga met uw muis naar het station om de naam te zien.

Klik dan om waarnemingen en weersverwachtingen te zien.

kaart wijzigen: klik op de groene knoppen met een zwart kruis om in te zoomen, op de groene knop met een streepje om uit te zoomen of op de groene pijlen voor aangrenzende kaarten.


METAR-TAF: